<?xml version='1.0' encoding='UTF-8'?><gpx version="1.1" creator="JPX - https://github.com/jenetics/jpx" xmlns="http://www.topografix.com/GPX/1/1"><trk><trkseg><trkpt lat="44.0505483" lon="7.9362583"><ele>625.0</ele><time>2026-03-23T15:19:53.429Z</time></trkpt><trkpt lat="44.0506067" lon="7.9361767"><ele>625.0</ele><time>2026-03-23T15:19:55.428Z</time></trkpt><trkpt lat="44.0506483" lon="7.9360917"><ele>625.0</ele><time>2026-03-23T15:19:56.43Z</time></trkpt><trkpt lat="44.0507117" lon="7.9359817"><ele>625.0</ele><time>2026-03-23T15:19:57.428Z</time></trkpt><trkpt lat="44.0507683" lon="7.935895"><ele>625.0</ele><time>2026-03-23T15:19:58.429Z</time></trkpt><trkpt lat="44.0508283" lon="7.9358167"><ele>625.0</ele><time>2026-03-23T15:19:59.431Z</time></trkpt><trkpt lat="44.0508867" lon="7.9357767"><ele>626.1666666666667</ele><time>2026-03-23T15:20:00.429Z</time></trkpt><trkpt lat="44.0509417" lon="7.9357333"><ele>627.3333333333334</ele><time>2026-03-23T15:20:01.429Z</time></trkpt><trkpt lat="44.050995" lon="7.935685"><ele>628.5</ele><time>2026-03-23T15:20:02.429Z</time></trkpt><trkpt lat="44.0510667" lon="7.93564"><ele>629.6666666666666</ele><time>2026-03-23T15:20:03.429Z</time></trkpt><trkpt lat="44.051125" lon="7.9355767"><ele>630.8333333333333</ele><time>2026-03-23T15:20:04.429Z</time></trkpt><trkpt lat="44.051215" lon="7.9355"><ele>632.0</ele><time>2026-03-23T15:20:05.429Z</time></trkpt><trkpt lat="44.0513033" lon="7.93542"><ele>632.0</ele><time>2026-03-23T15:20:06.429Z</time></trkpt><trkpt lat="44.0513633" lon="7.9353633"><ele>632.0</ele><time>2026-03-23T15:20:07.429Z</time></trkpt><trkpt lat="44.0515117" lon="7.9353567"><ele>632.0</ele><time>2026-03-23T15:20:09.438Z</time></trkpt><trkpt lat="44.0515883" lon="7.9353733"><ele>632.0</ele><time>2026-03-23T15:20:10.428Z</time></trkpt><trkpt lat="44.0516617" lon="7.9353917"><ele>632.0</ele><time>2026-03-23T15:20:11.428Z</time></trkpt><trkpt lat="44.051735" lon="7.9354483"><ele>629.0</ele><time>2026-03-23T15:20:12.429Z</time></trkpt><trkpt lat="44.0518083" lon="7.9354717"><ele>626.0</ele><time>2026-03-23T15:20:13.429Z</time></trkpt><trkpt lat="44.0519167" lon="7.9354683"><ele>623.0</ele><time>2026-03-23T15:20:15.428Z</time></trkpt><trkpt lat="44.052" lon="7.9354733"><ele>620.0</ele><time>2026-03-23T15:20:17.429Z</time></trkpt><trkpt lat="44.0520533" lon="7.9355633"><ele>617.0</ele><time>2026-03-23T15:20:19.43Z</time></trkpt><trkpt lat="44.052085" lon="7.9356767"><ele>614.0</ele><time>2026-03-23T15:20:20.429Z</time></trkpt><trkpt lat="44.05214" lon="7.9358617"><ele>609.8</ele><time>2026-03-23T15:20:21.428Z</time></trkpt><trkpt lat="44.0521967" lon="7.9360033"><ele>605.5999999999999</ele><time>2026-03-23T15:20:22.427Z</time></trkpt><trkpt lat="44.0522617" lon="7.9361267"><ele>601.4</ele><time>2026-03-23T15:20:23.429Z</time></trkpt><trkpt lat="44.0523217" lon="7.9362067"><ele>597.1999999999999</ele><time>2026-03-23T15:20:24.429Z</time></trkpt><trkpt lat="44.05239" lon="7.9362667"><ele>593.0</ele><time>2026-03-23T15:20:25.429Z</time></trkpt><trkpt lat="44.0524483" lon="7.93633"><ele>593.8</ele><time>2026-03-23T15:20:26.429Z</time></trkpt><trkpt lat="44.0525017" lon="7.93641"><ele>594.5999999999999</ele><time>2026-03-23T15:20:27.429Z</time></trkpt><trkpt lat="44.0525433" lon="7.936495"><ele>595.4000000000001</ele><time>2026-03-23T15:20:28.429Z</time></trkpt><trkpt lat="44.0525483" lon="7.9365967"><ele>596.2</ele><time>2026-03-23T15:20:29.429Z</time></trkpt><trkpt lat="44.0525383" lon="7.9367433"><ele>597.0</ele><time>2026-03-23T15:20:30.429Z</time></trkpt><trkpt lat="44.0525517" lon="7.9369067"><ele>597.0</ele><time>2026-03-23T15:20:31.43Z</time></trkpt><trkpt lat="44.0525833" lon="7.9370917"><ele>597.0</ele><time>2026-03-23T15:20:32.43Z</time></trkpt><trkpt lat="44.0526167" lon="7.9372417"><ele>597.0</ele><time>2026-03-23T15:20:33.429Z</time></trkpt><trkpt lat="44.0526117" lon="7.9374567"><ele>597.0</ele><time>2026-03-23T15:20:34.432Z</time></trkpt><trkpt lat="44.05265" lon="7.9375717"><ele>595.5</ele><time>2026-03-23T15:20:35.433Z</time></trkpt><trkpt lat="44.0526983" lon="7.9376533"><ele>594.0</ele><time>2026-03-23T15:20:36.43Z</time></trkpt><trkpt lat="44.052755" lon="7.9377233"><ele>592.5</ele><time>2026-03-23T15:20:37.429Z</time></trkpt><trkpt lat="44.0528" lon="7.9377917"><ele>591.0</ele><time>2026-03-23T15:20:38.429Z</time></trkpt><trkpt lat="44.0528317" lon="7.9378683"><ele>589.5</ele><time>2026-03-23T15:20:39.429Z</time></trkpt><trkpt lat="44.052845" lon="7.93798"><ele>588.0</ele><time>2026-03-23T15:20:40.428Z</time></trkpt><trkpt lat="44.0528533" lon="7.9381133"><ele>588.0</ele><time>2026-03-23T15:20:41.429Z</time></trkpt><trkpt lat="44.0528483" lon="7.9382617"><ele>588.0</ele><time>2026-03-23T15:20:42.43Z</time></trkpt><trkpt lat="44.0528567" lon="7.9384167"><ele>588.0</ele><time>2026-03-23T15:20:43.429Z</time></trkpt><trkpt lat="44.0528767" lon="7.9385883"><ele>588.0</ele><time>2026-03-23T15:20:44.429Z</time></trkpt><trkpt lat="44.0529033" lon="7.9387467"><ele>586.6666666666666</ele><time>2026-03-23T15:20:45.43Z</time></trkpt><trkpt lat="44.052925" lon="7.9388583"><ele>585.3333333333334</ele><time>2026-03-23T15:20:46.43Z</time></trkpt><trkpt lat="44.0529983" lon="7.9389833"><ele>584.0</ele><time>2026-03-23T15:20:48.432Z</time></trkpt><trkpt lat="44.0530733" lon="7.939025"><ele>582.6666666666667</ele><time>2026-03-23T15:20:49.43Z</time></trkpt><trkpt lat="44.0531583" lon="7.93903"><ele>581.3333333333334</ele><time>2026-03-23T15:20:50.43Z</time></trkpt><trkpt lat="44.05324" lon="7.9390217"><ele>580.0</ele><time>2026-03-23T15:20:51.429Z</time></trkpt><trkpt lat="44.0533267" lon="7.9389867"><ele>583.0</ele><time>2026-03-23T15:20:52.428Z</time></trkpt><trkpt lat="44.0534017" lon="7.9389667"><ele>586.0</ele><time>2026-03-23T15:20:53.429Z</time></trkpt><trkpt lat="44.05352" lon="7.9389667"><ele>589.0</ele><time>2026-03-23T15:20:55.43Z</time></trkpt><trkpt lat="44.05351" lon="7.939095"><ele>592.0</ele><time>2026-03-23T15:20:57.428Z</time></trkpt><trkpt lat="44.053485" lon="7.9391917"><ele>595.0</ele><time>2026-03-23T15:20:58.431Z</time></trkpt><trkpt lat="44.05342" lon="7.9393467"><ele>595.0</ele><time>2026-03-23T15:20:59.429Z</time></trkpt><trkpt lat="44.0533717" lon="7.9394817"><ele>595.0</ele><time>2026-03-23T15:21:00.429Z</time></trkpt><trkpt lat="44.0533083" lon="7.9396217"><ele>595.0</ele><time>2026-03-23T15:21:01.429Z</time></trkpt><trkpt lat="44.0532233" lon="7.9397733"><ele>595.0</ele><time>2026-03-23T15:21:02.429Z</time></trkpt><trkpt lat="44.0531433" lon="7.9399167"><ele>589.2</ele><time>2026-03-23T15:21:03.429Z</time></trkpt><trkpt lat="44.0530733" lon="7.9400367"><ele>583.4</ele><time>2026-03-23T15:21:04.429Z</time></trkpt><trkpt lat="44.0530333" lon="7.9401217"><ele>577.6</ele><time>2026-03-23T15:21:05.43Z</time></trkpt><trkpt lat="44.0530117" lon="7.9402317"><ele>571.8</ele><time>2026-03-23T15:21:07.429Z</time></trkpt><trkpt lat="44.0531033" lon="7.9401933"><ele>566.0</ele><time>2026-03-23T15:21:09.429Z</time></trkpt><trkpt lat="44.05322" lon="7.9401017"><ele>568.0</ele><time>2026-03-23T15:21:10.429Z</time></trkpt><trkpt lat="44.0533017" lon="7.940065"><ele>570.0</ele><time>2026-03-23T15:21:11.43Z</time></trkpt><trkpt lat="44.05339" lon="7.94004"><ele>572.0</ele><time>2026-03-23T15:21:12.43Z</time></trkpt><trkpt lat="44.0535117" lon="7.9400383"><ele>574.0</ele><time>2026-03-23T15:21:13.429Z</time></trkpt><trkpt lat="44.05361" lon="7.9401167"><ele>576.0</ele><time>2026-03-23T15:21:14.429Z</time></trkpt><trkpt lat="44.0536933" lon="7.94021"><ele>576.0</ele><time>2026-03-23T15:21:15.429Z</time></trkpt><trkpt lat="44.0537467" lon="7.9402967"><ele>576.0</ele><time>2026-03-23T15:21:16.428Z</time></trkpt><trkpt lat="44.053805" lon="7.9403533"><ele>576.0</ele><time>2026-03-23T15:21:17.429Z</time></trkpt><trkpt lat="44.0539" lon="7.94035"><ele>576.0</ele><time>2026-03-23T15:21:19.432Z</time></trkpt><trkpt lat="44.0539433" lon="7.9402767"><ele>576.0</ele><time>2026-03-23T15:21:20.429Z</time></trkpt><trkpt lat="44.0539833" lon="7.9401783"><ele>576.0</ele><time>2026-03-23T15:21:21.429Z</time></trkpt><trkpt lat="44.05408" lon="7.94008"><ele>577.2</ele><time>2026-03-23T15:21:23.429Z</time></trkpt><trkpt lat="44.05415" lon="7.9400633"><ele>578.4000000000001</ele><time>2026-03-23T15:21:24.429Z</time></trkpt><trkpt lat="44.0542217" lon="7.9401017"><ele>579.6</ele><time>2026-03-23T15:21:25.431Z</time></trkpt><trkpt lat="44.0543" lon="7.9401867"><ele>580.8000000000001</ele><time>2026-03-23T15:21:26.43Z</time></trkpt><trkpt lat="44.0544017" lon="7.940315"><ele>582.0</ele><time>2026-03-23T15:21:27.429Z</time></trkpt><trkpt lat="44.0545" lon="7.9404467"><ele>582.0</ele><time>2026-03-23T15:21:28.429Z</time></trkpt><trkpt lat="44.0545883" lon="7.94059"><ele>582.0</ele><time>2026-03-23T15:21:29.429Z</time></trkpt><trkpt lat="44.054675" lon="7.9407317"><ele>582.0</ele><time>2026-03-23T15:21:30.43Z</time></trkpt><trkpt lat="44.0547633" lon="7.940815"><ele>582.0</ele><time>2026-03-23T15:21:31.429Z</time></trkpt><trkpt lat="44.0548583" lon="7.9408983"><ele>580.4</ele><time>2026-03-23T15:21:32.429Z</time></trkpt><trkpt lat="44.0549467" lon="7.9409817"><ele>578.8000000000001</ele><time>2026-03-23T15:21:33.429Z</time></trkpt><trkpt lat="44.0550117" lon="7.9410867"><ele>577.2</ele><time>2026-03-23T15:21:34.429Z</time></trkpt><trkpt lat="44.0550733" lon="7.9411983"><ele>575.6</ele><time>2026-03-23T15:21:35.429Z</time></trkpt><trkpt lat="44.055145" lon="7.941315"><ele>574.0</ele><time>2026-03-23T15:21:36.428Z</time></trkpt><trkpt lat="44.0552167" lon="7.9414467"><ele>574.0</ele><time>2026-03-23T15:21:37.428Z</time></trkpt><trkpt lat="44.0552767" lon="7.9416067"><ele>574.0</ele><time>2026-03-23T15:21:38.429Z</time></trkpt><trkpt lat="44.05532" lon="7.9417583"><ele>574.0</ele><time>2026-03-23T15:21:39.432Z</time></trkpt><trkpt lat="44.05536" lon="7.9418683"><ele>574.0</ele><time>2026-03-23T15:21:40.429Z</time></trkpt><trkpt lat="44.0554033" lon="7.94195"><ele>574.0</ele><time>2026-03-23T15:21:41.432Z</time></trkpt><trkpt lat="44.0555117" lon="7.9420067"><ele>574.3333333333334</ele><time>2026-03-23T15:21:43.432Z</time></trkpt><trkpt lat="44.0556017" lon="7.94199"><ele>574.6666666666667</ele><time>2026-03-23T15:21:44.429Z</time></trkpt><trkpt lat="44.0557" lon="7.9419733"><ele>575.0</ele><time>2026-03-23T15:21:45.429Z</time></trkpt><trkpt lat="44.0557883" lon="7.941955"><ele>575.3333333333334</ele><time>2026-03-23T15:21:46.429Z</time></trkpt><trkpt lat="44.0558817" lon="7.941915"><ele>575.6666666666666</ele><time>2026-03-23T15:21:47.429Z</time></trkpt><trkpt lat="44.0559467" lon="7.9418983"><ele>576.0</ele><time>2026-03-23T15:21:48.429Z</time></trkpt><trkpt lat="44.0560483" lon="7.941935"><ele>576.0</ele><time>2026-03-23T15:21:50.429Z</time></trkpt><trkpt lat="44.05612" lon="7.9420867"><ele>576.0</ele><time>2026-03-23T15:21:52.43Z</time></trkpt><trkpt lat="44.056155" lon="7.9421783"><ele>576.0</ele><time>2026-03-23T15:21:53.429Z</time></trkpt><trkpt lat="44.056205" lon="7.9422783"><ele>576.0</ele><time>2026-03-23T15:21:54.429Z</time></trkpt><trkpt lat="44.0562417" lon="7.9423783"><ele>576.0</ele><time>2026-03-23T15:21:55.429Z</time></trkpt><trkpt lat="44.05627" lon="7.94249"><ele>573.8333333333334</ele><time>2026-03-23T15:21:56.432Z</time></trkpt><trkpt lat="44.056275" lon="7.9426183"><ele>571.6666666666666</ele><time>2026-03-23T15:21:57.43Z</time></trkpt><trkpt lat="44.056275" lon="7.9427483"><ele>569.5</ele><time>2026-03-23T15:21:58.43Z</time></trkpt><trkpt lat="44.05627" lon="7.9428583"><ele>567.3333333333333</ele><time>2026-03-23T15:21:59.429Z</time></trkpt><trkpt lat="44.0562767" lon="7.9429683"><ele>565.1666666666666</ele><time>2026-03-23T15:22:00.43Z</time></trkpt><trkpt lat="44.0562817" lon="7.9431017"><ele>563.0</ele><time>2026-03-23T15:22:01.43Z</time></trkpt><trkpt lat="44.0562767" lon="7.9432233"><ele>563.0</ele><time>2026-03-23T15:22:02.431Z</time></trkpt><trkpt lat="44.0562883" lon="7.943345"><ele>563.0</ele><time>2026-03-23T15:22:03.43Z</time></trkpt><trkpt lat="44.056305" lon="7.9434767"><ele>563.0</ele><time>2026-03-23T15:22:04.43Z</time></trkpt><trkpt lat="44.0563117" lon="7.9435867"><ele>563.0</ele><time>2026-03-23T15:22:05.431Z</time></trkpt><trkpt lat="44.0562833" lon="7.94373"><ele>563.0</ele><time>2026-03-23T15:22:07.431Z</time></trkpt><trkpt lat="44.0562167" lon="7.9438567"><ele>562.6</ele><time>2026-03-23T15:22:09.431Z</time></trkpt><trkpt lat="44.0561817" lon="7.94404"><ele>562.1999999999999</ele><time>2026-03-23T15:22:11.431Z</time></trkpt><trkpt lat="44.0561533" lon="7.944165"><ele>561.8</ele><time>2026-03-23T15:22:12.43Z</time></trkpt><trkpt lat="44.0561133" lon="7.9442683"><ele>561.4</ele><time>2026-03-23T15:22:13.43Z</time></trkpt><trkpt lat="44.0560617" lon="7.94437"><ele>561.0</ele><time>2026-03-23T15:22:14.43Z</time></trkpt><trkpt lat="44.0559983" lon="7.944465"><ele>560.8333333333334</ele><time>2026-03-23T15:22:15.43Z</time></trkpt><trkpt lat="44.0559383" lon="7.944565"><ele>560.6666666666666</ele><time>2026-03-23T15:22:16.43Z</time></trkpt><trkpt lat="44.0559" lon="7.9446683"><ele>560.5</ele><time>2026-03-23T15:22:17.431Z</time></trkpt><trkpt lat="44.055875" lon="7.9447883"><ele>560.3333333333333</ele><time>2026-03-23T15:22:18.429Z</time></trkpt><trkpt lat="44.0558617" lon="7.9449167"><ele>560.1666666666666</ele><time>2026-03-23T15:22:19.431Z</time></trkpt><trkpt lat="44.055855" lon="7.945035"><ele>560.0</ele><time>2026-03-23T15:22:20.43Z</time></trkpt><trkpt lat="44.0558583" lon="7.9451333"><ele>559.5</ele><time>2026-03-23T15:22:21.43Z</time></trkpt><trkpt lat="44.0559" lon="7.9452683"><ele>559.0</ele><time>2026-03-23T15:22:23.43Z</time></trkpt><trkpt lat="44.0559533" lon="7.94533"><ele>558.5</ele><time>2026-03-23T15:22:24.432Z</time></trkpt><trkpt lat="44.05601" lon="7.945405"><ele>558.0</ele><time>2026-03-23T15:22:25.429Z</time></trkpt><trkpt lat="44.0560833" lon="7.94549"><ele>557.5</ele><time>2026-03-23T15:22:26.43Z</time></trkpt><trkpt lat="44.0561467" lon="7.9455733"><ele>557.0</ele><time>2026-03-23T15:22:27.43Z</time></trkpt><trkpt lat="44.0562017" lon="7.9456467"><ele>557.0</ele><time>2026-03-23T15:22:28.431Z</time></trkpt><trkpt lat="44.0562433" lon="7.9457133"><ele>557.0</ele><time>2026-03-23T15:22:29.43Z</time></trkpt><trkpt lat="44.0562833" lon="7.945845"><ele>557.0</ele><time>2026-03-23T15:22:31.43Z</time></trkpt><trkpt lat="44.05624" lon="7.9459383"><ele>557.0</ele><time>2026-03-23T15:22:33.429Z</time></trkpt><trkpt lat="44.0561783" lon="7.9459617"><ele>557.0</ele><time>2026-03-23T15:22:34.43Z</time></trkpt><trkpt lat="44.0560983" lon="7.94596"><ele>557.0</ele><time>2026-03-23T15:22:35.431Z</time></trkpt><trkpt lat="44.0560267" lon="7.9459783"><ele>557.1666666666666</ele><time>2026-03-23T15:22:36.429Z</time></trkpt><trkpt lat="44.055945" lon="7.9460083"><ele>557.3333333333333</ele><time>2026-03-23T15:22:37.43Z</time></trkpt><trkpt lat="44.0558817" lon="7.9460567"><ele>557.5</ele><time>2026-03-23T15:22:38.431Z</time></trkpt><trkpt lat="44.0558267" lon="7.9461167"><ele>557.6666666666666</ele><time>2026-03-23T15:22:39.429Z</time></trkpt><trkpt lat="44.0557833" lon="7.946185"><ele>557.8333333333334</ele><time>2026-03-23T15:22:40.432Z</time></trkpt><trkpt lat="44.05576" lon="7.94628"><ele>558.0</ele><time>2026-03-23T15:22:41.432Z</time></trkpt><trkpt lat="44.0557633" lon="7.9464233"><ele>558.0</ele><time>2026-03-23T15:22:42.432Z</time></trkpt><trkpt lat="44.0557817" lon="7.9465733"><ele>558.0</ele><time>2026-03-23T15:22:43.429Z</time></trkpt><trkpt lat="44.0557933" lon="7.946705"><ele>558.0</ele><time>2026-03-23T15:22:44.432Z</time></trkpt><trkpt lat="44.0558" lon="7.9468267"><ele>558.0</ele><time>2026-03-23T15:22:45.432Z</time></trkpt><trkpt lat="44.055805" lon="7.94695"><ele>558.0</ele><time>2026-03-23T15:22:46.432Z</time></trkpt><trkpt lat="44.0558033" lon="7.9470833"><ele>559.0</ele><time>2026-03-23T15:22:47.428Z</time></trkpt><trkpt lat="44.0558133" lon="7.9471967"><ele>560.0</ele><time>2026-03-23T15:22:48.429Z</time></trkpt><trkpt lat="44.0558233" lon="7.9472883"><ele>561.0</ele><time>2026-03-23T15:22:49.429Z</time></trkpt><trkpt lat="44.055835" lon="7.9474467"><ele>562.0</ele><time>2026-03-23T15:22:51.429Z</time></trkpt><trkpt lat="44.0558383" lon="7.9475917"><ele>563.0</ele><time>2026-03-23T15:22:53.43Z</time></trkpt><trkpt lat="44.0558183" lon="7.94771"><ele>557.8</ele><time>2026-03-23T15:22:55.429Z</time></trkpt><trkpt lat="44.0557817" lon="7.9478167"><ele>552.5999999999999</ele><time>2026-03-23T15:22:57.432Z</time></trkpt><trkpt lat="44.0556883" lon="7.9479367"><ele>547.4000000000001</ele><time>2026-03-23T15:22:59.432Z</time></trkpt><trkpt lat="44.05565" lon="7.9480217"><ele>542.2</ele><time>2026-03-23T15:23:00.429Z</time></trkpt><trkpt lat="44.055605" lon="7.9481633"><ele>537.0</ele><time>2026-03-23T15:23:02.43Z</time></trkpt><trkpt lat="44.0556167" lon="7.9483067"><ele>538.3333333333334</ele><time>2026-03-23T15:23:04.429Z</time></trkpt><trkpt lat="44.0556417" lon="7.9484"><ele>539.6666666666666</ele><time>2026-03-23T15:23:05.432Z</time></trkpt><trkpt lat="44.0556667" lon="7.9485067"><ele>541.0</ele><time>2026-03-23T15:23:06.429Z</time></trkpt><trkpt lat="44.0556817" lon="7.948625"><ele>542.3333333333333</ele><time>2026-03-23T15:23:07.429Z</time></trkpt><trkpt lat="44.05569" lon="7.94874"><ele>543.6666666666666</ele><time>2026-03-23T15:23:08.429Z</time></trkpt><trkpt lat="44.0556733" lon="7.9488983"><ele>545.0</ele><time>2026-03-23T15:23:10.43Z</time></trkpt><trkpt lat="44.0556333" lon="7.948995"><ele>545.0</ele><time>2026-03-23T15:23:12.432Z</time></trkpt><trkpt lat="44.0555583" lon="7.94903"><ele>545.0</ele><time>2026-03-23T15:23:14.432Z</time></trkpt><trkpt lat="44.0554983" lon="7.949"><ele>545.0</ele><time>2026-03-23T15:23:16.429Z</time></trkpt><trkpt lat="44.05548" lon="7.9488633"><ele>545.0</ele><time>2026-03-23T15:23:18.429Z</time></trkpt><trkpt lat="44.0554867" lon="7.94874"><ele>545.0</ele><time>2026-03-23T15:23:19.429Z</time></trkpt><trkpt lat="44.0554883" lon="7.9486333"><ele>545.0</ele><time>2026-03-23T15:23:20.429Z</time></trkpt><trkpt lat="44.0554717" lon="7.9485367"><ele>545.0</ele><time>2026-03-23T15:23:21.428Z</time></trkpt><trkpt lat="44.055425" lon="7.9484417"><ele>545.0</ele><time>2026-03-23T15:23:22.429Z</time></trkpt><trkpt lat="44.05538" lon="7.948365"><ele>545.0</ele><time>2026-03-23T15:23:23.429Z</time></trkpt><trkpt lat="44.0553333" lon="7.9482917"><ele>545.0</ele><time>2026-03-23T15:23:24.429Z</time></trkpt><trkpt lat="44.0552667" lon="7.94818"><ele>545.0</ele><time>2026-03-23T15:23:26.433Z</time></trkpt><trkpt lat="44.055225" lon="7.9483167"><ele>545.0</ele><time>2026-03-23T15:23:29.43Z</time></trkpt><trkpt lat="44.0552417" lon="7.948445"><ele>545.0</ele><time>2026-03-23T15:23:30.43Z</time></trkpt><trkpt lat="44.0552633" lon="7.9485617"><ele>545.0</ele><time>2026-03-23T15:23:31.43Z</time></trkpt><trkpt lat="44.05527" lon="7.9486667"><ele>545.0</ele><time>2026-03-23T15:23:32.43Z</time></trkpt><trkpt lat="44.05526" lon="7.9488017"><ele>545.0</ele><time>2026-03-23T15:23:34.432Z</time></trkpt><trkpt lat="44.055175" lon="7.9488233"><ele>545.0</ele><time>2026-03-23T15:23:38.431Z</time></trkpt><trkpt lat="44.0551033" lon="7.9488183"><ele>545.0</ele><time>2026-03-23T15:23:40.433Z</time></trkpt><trkpt lat="44.0550117" lon="7.948905"><ele>539.8</ele><time>2026-03-23T15:23:42.429Z</time></trkpt><trkpt lat="44.0549467" lon="7.94894"><ele>534.6</ele><time>2026-03-23T15:23:43.43Z</time></trkpt><trkpt lat="44.0548817" lon="7.948975"><ele>529.4</ele><time>2026-03-23T15:23:44.43Z</time></trkpt><trkpt lat="44.0548167" lon="7.9490117"><ele>524.2</ele><time>2026-03-23T15:23:45.429Z</time></trkpt><trkpt lat="44.0546983" lon="7.9490567"><ele>519.0</ele><time>2026-03-23T15:23:47.429Z</time></trkpt><trkpt lat="44.0545833" lon="7.949115"><ele>519.0</ele><time>2026-03-23T15:23:49.429Z</time></trkpt><trkpt lat="44.05452" lon="7.949135"><ele>519.0</ele><time>2026-03-23T15:23:50.43Z</time></trkpt><trkpt lat="44.0544583" lon="7.949155"><ele>519.0</ele><time>2026-03-23T15:23:51.429Z</time></trkpt><trkpt lat="44.05436" lon="7.949185"><ele>519.0</ele><time>2026-03-23T15:23:53.43Z</time></trkpt><trkpt lat="44.0542633" lon="7.949185"><ele>519.0</ele><time>2026-03-23T15:23:55.429Z</time></trkpt><trkpt lat="44.0541483" lon="7.9491783"><ele>519.0</ele><time>2026-03-23T15:23:57.429Z</time></trkpt><trkpt lat="44.054045" lon="7.9492133"><ele>518.1666666666666</ele><time>2026-03-23T15:23:59.429Z</time></trkpt><trkpt lat="44.0539367" lon="7.949275"><ele>517.3333333333334</ele><time>2026-03-23T15:24:01.429Z</time></trkpt><trkpt lat="44.0538817" lon="7.9493183"><ele>516.5</ele><time>2026-03-23T15:24:02.43Z</time></trkpt><trkpt lat="44.05382" lon="7.9493567"><ele>515.6666666666667</ele><time>2026-03-23T15:24:03.429Z</time></trkpt><trkpt lat="44.0537567" lon="7.9493883"><ele>514.8333333333334</ele><time>2026-03-23T15:24:04.429Z</time></trkpt><trkpt lat="44.0536533" lon="7.9494283"><ele>514.0</ele><time>2026-03-23T15:24:06.428Z</time></trkpt><trkpt lat="44.05359" lon="7.9494933"><ele>514.0</ele><time>2026-03-23T15:24:08.431Z</time></trkpt><trkpt lat="44.053535" lon="7.9496217"><ele>514.0</ele><time>2026-03-23T15:24:10.43Z</time></trkpt><trkpt lat="44.0534633" lon="7.94973"><ele>514.0</ele><time>2026-03-23T15:24:12.43Z</time></trkpt><trkpt lat="44.0534067" lon="7.9498067"><ele>514.0</ele><time>2026-03-23T15:24:14.431Z</time></trkpt><trkpt lat="44.05334" lon="7.9497883"><ele>514.0</ele><time>2026-03-23T15:24:17.43Z</time></trkpt><trkpt lat="44.0533633" lon="7.9496183"><ele>514.0</ele><time>2026-03-23T15:24:20.43Z</time></trkpt><trkpt lat="44.0533683" lon="7.9495283"><ele>514.0</ele><time>2026-03-23T15:24:21.43Z</time></trkpt><trkpt lat="44.053385" lon="7.9494133"><ele>514.0</ele><time>2026-03-23T15:24:22.431Z</time></trkpt><trkpt lat="44.0533917" lon="7.9492983"><ele>514.0</ele><time>2026-03-23T15:24:23.43Z</time></trkpt><trkpt lat="44.053385" lon="7.94916"><ele>514.0</ele><time>2026-03-23T15:24:24.432Z</time></trkpt><trkpt lat="44.0533883" lon="7.94904"><ele>514.0</ele><time>2026-03-23T15:24:25.431Z</time></trkpt><trkpt lat="44.0534" lon="7.9489083"><ele>510.1666666666667</ele><time>2026-03-23T15:24:26.43Z</time></trkpt><trkpt lat="44.0534117" lon="7.948805"><ele>506.33333333333337</ele><time>2026-03-23T15:24:27.428Z</time></trkpt><trkpt lat="44.053425" lon="7.94871"><ele>502.5</ele><time>2026-03-23T15:24:28.428Z</time></trkpt><trkpt lat="44.053415" lon="7.9486167"><ele>498.66666666666663</ele><time>2026-03-23T15:24:30.428Z</time></trkpt><trkpt lat="44.0533433" lon="7.9485983"><ele>494.8333333333333</ele><time>2026-03-23T15:24:32.429Z</time></trkpt><trkpt lat="44.0532533" lon="7.9486567"><ele>491.0</ele><time>2026-03-23T15:24:34.428Z</time></trkpt><trkpt lat="44.0532133" lon="7.948765"><ele>493.20000000000005</ele><time>2026-03-23T15:24:36.428Z</time></trkpt><trkpt lat="44.0532133" lon="7.948905"><ele>495.40000000000003</ele><time>2026-03-23T15:24:38.429Z</time></trkpt><trkpt lat="44.0531833" lon="7.9490467"><ele>497.6</ele><time>2026-03-23T15:24:40.429Z</time></trkpt><trkpt lat="44.0530933" lon="7.9491267"><ele>499.8</ele><time>2026-03-23T15:24:42.428Z</time></trkpt><trkpt lat="44.0529867" lon="7.9492"><ele>502.0</ele><time>2026-03-23T15:24:44.428Z</time></trkpt><trkpt lat="44.052885" lon="7.9492517"><ele>502.0</ele><time>2026-03-23T15:24:46.428Z</time></trkpt><trkpt lat="44.05279" lon="7.9492433"><ele>502.00000000000006</ele><time>2026-03-23T15:24:48.431Z</time></trkpt><trkpt lat="44.0526983" lon="7.94928"><ele>502.00000000000006</ele><time>2026-03-23T15:24:50.429Z</time></trkpt><trkpt lat="44.052575" lon="7.9493317"><ele>502.0</ele><time>2026-03-23T15:24:52.429Z</time></trkpt><trkpt lat="44.0524983" lon="7.9493417"><ele>502.0</ele><time>2026-03-23T15:24:53.429Z</time></trkpt><trkpt lat="44.05243" lon="7.9493483"><ele>496.8</ele><time>2026-03-23T15:24:54.429Z</time></trkpt><trkpt lat="44.052335" lon="7.9493283"><ele>491.6</ele><time>2026-03-23T15:24:56.428Z</time></trkpt><trkpt lat="44.0522117" lon="7.9492533"><ele>486.40000000000003</ele><time>2026-03-23T15:24:58.429Z</time></trkpt><trkpt lat="44.052135" lon="7.949225"><ele>481.20000000000005</ele><time>2026-03-23T15:24:59.429Z</time></trkpt><trkpt lat="44.0520533" lon="7.9492133"><ele>476.0</ele><time>2026-03-23T15:25:00.429Z</time></trkpt><trkpt lat="44.0519733" lon="7.9492017"><ele>473.1428571428571</ele><time>2026-03-23T15:25:01.429Z</time></trkpt><trkpt lat="44.0518967" lon="7.9491833"><ele>470.2857142857143</ele><time>2026-03-23T15:25:02.429Z</time></trkpt><trkpt lat="44.0518233" lon="7.949155"><ele>467.42857142857144</ele><time>2026-03-23T15:25:03.429Z</time></trkpt><trkpt lat="44.0517433" lon="7.9491383"><ele>464.57142857142856</ele><time>2026-03-23T15:25:04.429Z</time></trkpt><trkpt lat="44.0516667" lon="7.94914"><ele>461.71428571428567</ele><time>2026-03-23T15:25:05.429Z</time></trkpt><trkpt lat="44.0515983" lon="7.9491567"><ele>458.85714285714283</ele><time>2026-03-23T15:25:06.429Z</time></trkpt><trkpt lat="44.0515383" lon="7.9491867"><ele>456.0</ele><time>2026-03-23T15:25:07.429Z</time></trkpt><trkpt lat="44.0514583" lon="7.949285"><ele>453.0</ele><time>2026-03-23T15:25:09.429Z</time></trkpt><trkpt lat="44.0514067" lon="7.94941"><ele>450.0</ele><time>2026-03-23T15:25:11.431Z</time></trkpt><trkpt lat="44.0514017" lon="7.949585"><ele>447.0</ele><time>2026-03-23T15:25:13.429Z</time></trkpt><trkpt lat="44.0514033" lon="7.9496817"><ele>444.0</ele><time>2026-03-23T15:25:14.431Z</time></trkpt><trkpt lat="44.0513667" lon="7.949815"><ele>441.0</ele><time>2026-03-23T15:25:16.431Z</time></trkpt><trkpt lat="44.0512883" lon="7.9499"><ele>441.0</ele><time>2026-03-23T15:25:18.428Z</time></trkpt><trkpt lat="44.0512017" lon="7.9500083"><ele>441.0</ele><time>2026-03-23T15:25:20.428Z</time></trkpt><trkpt lat="44.0510767" lon="7.9501017"><ele>441.0</ele><time>2026-03-23T15:25:22.428Z</time></trkpt><trkpt lat="44.0509933" lon="7.95015"><ele>441.0</ele><time>2026-03-23T15:25:23.428Z</time></trkpt><trkpt lat="44.0509167" lon="7.9501883"><ele>441.0</ele><time>2026-03-23T15:25:24.428Z</time></trkpt><trkpt lat="44.0508467" lon="7.950205"><ele>441.2857142857143</ele><time>2026-03-23T15:25:25.428Z</time></trkpt><trkpt lat="44.05078" lon="7.95021"><ele>441.57142857142856</ele><time>2026-03-23T15:25:26.428Z</time></trkpt><trkpt lat="44.05071" lon="7.9501917"><ele>441.8571428571429</ele><time>2026-03-23T15:25:27.429Z</time></trkpt><trkpt lat="44.0506367" lon="7.9501567"><ele>442.1428571428571</ele><time>2026-03-23T15:25:28.428Z</time></trkpt><trkpt lat="44.050565" lon="7.9501183"><ele>442.42857142857144</ele><time>2026-03-23T15:25:29.429Z</time></trkpt><trkpt lat="44.050495" lon="7.95009"><ele>442.7142857142857</ele><time>2026-03-23T15:25:30.428Z</time></trkpt><trkpt lat="44.050425" lon="7.9500767"><ele>443.0</ele><time>2026-03-23T15:25:31.429Z</time></trkpt><trkpt lat="44.05036" lon="7.9500633"><ele>442.99999999999994</ele><time>2026-03-23T15:25:32.43Z</time></trkpt><trkpt lat="44.05028" lon="7.95006"><ele>443.0</ele><time>2026-03-23T15:25:33.427Z</time></trkpt><trkpt lat="44.0502083" lon="7.9500483"><ele>443.0</ele><time>2026-03-23T15:25:34.431Z</time></trkpt><trkpt lat="44.0501283" lon="7.9500283"><ele>443.0</ele><time>2026-03-23T15:25:35.429Z</time></trkpt><trkpt lat="44.0500417" lon="7.9500167"><ele>442.99999999999994</ele><time>2026-03-23T15:25:36.43Z</time></trkpt><trkpt lat="44.04996" lon="7.9500217"><ele>443.0</ele><time>2026-03-23T15:25:37.429Z</time></trkpt><trkpt lat="44.0498867" lon="7.950045"><ele>436.49999999999994</ele><time>2026-03-23T15:25:38.429Z</time></trkpt><trkpt lat="44.0498233" lon="7.9500683"><ele>430.0</ele><time>2026-03-23T15:25:39.428Z</time></trkpt><trkpt lat="44.0497283" lon="7.9501917"><ele>423.5</ele><time>2026-03-23T15:25:41.431Z</time></trkpt><trkpt lat="44.0496833" lon="7.9502633"><ele>417.0</ele><time>2026-03-23T15:25:42.431Z</time></trkpt><trkpt lat="44.04964" lon="7.9503517"><ele>410.49999999999994</ele><time>2026-03-23T15:25:43.431Z</time></trkpt><trkpt lat="44.049595" lon="7.9504483"><ele>404.0</ele><time>2026-03-23T15:25:44.429Z</time></trkpt><trkpt lat="44.0495333" lon="7.9505467"><ele>404.0</ele><time>2026-03-23T15:25:45.429Z</time></trkpt><trkpt lat="44.0494633" lon="7.950665"><ele>404.0</ele><time>2026-03-23T15:25:46.429Z</time></trkpt><trkpt lat="44.049385" lon="7.9507867"><ele>404.0</ele><time>2026-03-23T15:25:47.429Z</time></trkpt><trkpt lat="44.049315" lon="7.9508933"><ele>404.0</ele><time>2026-03-23T15:25:48.432Z</time></trkpt><trkpt lat="44.04926" lon="7.95101"><ele>404.0</ele><time>2026-03-23T15:25:49.431Z</time></trkpt><trkpt lat="44.04922" lon="7.951115"><ele>404.0</ele><time>2026-03-23T15:25:50.429Z</time></trkpt><trkpt lat="44.0491883" lon="7.9511967"><ele>404.0</ele><time>2026-03-23T15:25:51.428Z</time></trkpt><trkpt lat="44.0491767" lon="7.9512833"><ele>404.0</ele><time>2026-03-23T15:25:53.432Z</time></trkpt><trkpt lat="44.0492633" lon="7.9513433"><ele>404.0</ele><time>2026-03-23T15:25:55.431Z</time></trkpt><trkpt lat="44.0494083" lon="7.95136"><ele>404.0</ele><time>2026-03-23T15:25:57.431Z</time></trkpt><trkpt lat="44.0495017" lon="7.95138"><ele>404.0</ele><time>2026-03-23T15:25:58.431Z</time></trkpt><trkpt lat="44.0495917" lon="7.951425"><ele>404.0</ele><time>2026-03-23T15:25:59.432Z</time></trkpt><trkpt lat="44.0496883" lon="7.9515"><ele>404.0</ele><time>2026-03-23T15:26:00.428Z</time></trkpt><trkpt lat="44.04976" lon="7.9515767"><ele>404.0</ele><time>2026-03-23T15:26:01.429Z</time></trkpt><trkpt lat="44.0498167" lon="7.95164"><ele>404.0</ele><time>2026-03-23T15:26:02.429Z</time></trkpt><trkpt lat="44.04993" lon="7.9517333"><ele>401.8333333333333</ele><time>2026-03-23T15:26:04.432Z</time></trkpt><trkpt lat="44.0499933" lon="7.951775"><ele>399.66666666666663</ele><time>2026-03-23T15:26:05.429Z</time></trkpt><trkpt lat="44.0500583" lon="7.95181"><ele>397.5</ele><time>2026-03-23T15:26:06.428Z</time></trkpt><trkpt lat="44.0501333" lon="7.951825"><ele>395.33333333333337</ele><time>2026-03-23T15:26:07.43Z</time></trkpt><trkpt lat="44.0502067" lon="7.9518283"><ele>393.1666666666667</ele><time>2026-03-23T15:26:08.429Z</time></trkpt><trkpt lat="44.0502867" lon="7.951825"><ele>391.0</ele><time>2026-03-23T15:26:09.429Z</time></trkpt><trkpt lat="44.0503783" lon="7.951805"><ele>391.00000000000006</ele><time>2026-03-23T15:26:10.431Z</time></trkpt><trkpt lat="44.050465" lon="7.951785"><ele>391.0</ele><time>2026-03-23T15:26:11.429Z</time></trkpt><trkpt lat="44.0505383" lon="7.9517717"><ele>391.0</ele><time>2026-03-23T15:26:12.429Z</time></trkpt><trkpt lat="44.0506067" lon="7.9517783"><ele>391.0</ele><time>2026-03-23T15:26:13.43Z</time></trkpt><trkpt lat="44.050675" lon="7.9518117"><ele>391.00000000000006</ele><time>2026-03-23T15:26:14.429Z</time></trkpt><trkpt lat="44.0507583" lon="7.9518433"><ele>391.0</ele><time>2026-03-23T15:26:15.429Z</time></trkpt><trkpt lat="44.05085" lon="7.95186"><ele>394.83333333333337</ele><time>2026-03-23T15:26:16.429Z</time></trkpt><trkpt lat="44.050945" lon="7.9518733"><ele>398.6666666666667</ele><time>2026-03-23T15:26:17.429Z</time></trkpt><trkpt lat="44.0510417" lon="7.951885"><ele>402.5</ele><time>2026-03-23T15:26:18.429Z</time></trkpt><trkpt lat="44.05113" lon="7.951895"><ele>406.33333333333337</ele><time>2026-03-23T15:26:19.43Z</time></trkpt><trkpt lat="44.0512117" lon="7.9519033"><ele>410.1666666666667</ele><time>2026-03-23T15:26:20.435Z</time></trkpt><trkpt lat="44.051285" lon="7.9519233"><ele>414.0</ele><time>2026-03-23T15:26:21.429Z</time></trkpt><trkpt lat="44.0513583" lon="7.9519633"><ele>414.0</ele><time>2026-03-23T15:26:22.431Z</time></trkpt><trkpt lat="44.0514233" lon="7.9520317"><ele>414.0</ele><time>2026-03-23T15:26:23.43Z</time></trkpt><trkpt lat="44.05148" lon="7.9521183"><ele>414.0</ele><time>2026-03-23T15:26:24.43Z</time></trkpt><trkpt lat="44.0515367" lon="7.9522217"><ele>414.0</ele><time>2026-03-23T15:26:25.43Z</time></trkpt><trkpt lat="44.0515917" lon="7.9523183"><ele>414.0</ele><time>2026-03-23T15:26:26.43Z</time></trkpt><trkpt lat="44.0516367" lon="7.9523983"><ele>414.0</ele><time>2026-03-23T15:26:27.429Z</time></trkpt><trkpt lat="44.051675" lon="7.9524717"><ele>416.6</ele><time>2026-03-23T15:26:28.429Z</time></trkpt><trkpt lat="44.05175" lon="7.9525817"><ele>419.2</ele><time>2026-03-23T15:26:30.429Z</time></trkpt><trkpt lat="44.05181" lon="7.9526733"><ele>421.80000000000007</ele><time>2026-03-23T15:26:32.431Z</time></trkpt><trkpt lat="44.0518533" lon="7.95281"><ele>424.40000000000003</ele><time>2026-03-23T15:26:34.429Z</time></trkpt><trkpt lat="44.0518683" lon="7.9529367"><ele>427.0</ele><time>2026-03-23T15:26:36.43Z</time></trkpt><trkpt lat="44.0518383" lon="7.95303"><ele>427.0</ele><time>2026-03-23T15:26:58.429Z</time></trkpt><trkpt lat="44.05177" lon="7.953005"><ele>427.00000000000006</ele><time>2026-03-23T15:27:02.429Z</time></trkpt><trkpt lat="44.0517267" lon="7.95307"><ele>427.00000000000006</ele><time>2026-03-23T15:27:05.43Z</time></trkpt><trkpt lat="44.0517117" lon="7.9532067"><ele>427.0</ele><time>2026-03-23T15:27:08.43Z</time></trkpt><trkpt lat="44.0517183" lon="7.9533417"><ele>427.0</ele><time>2026-03-23T15:27:10.429Z</time></trkpt><trkpt lat="44.05172" lon="7.95353"><ele>426.33333333333337</ele><time>2026-03-23T15:27:12.43Z</time></trkpt><trkpt lat="44.0517117" lon="7.953635"><ele>425.6666666666667</ele><time>2026-03-23T15:27:13.43Z</time></trkpt><trkpt lat="44.05169" lon="7.9537467"><ele>425.0</ele><time>2026-03-23T15:27:14.431Z</time></trkpt><trkpt lat="44.0516617" lon="7.9538567"><ele>424.33333333333337</ele><time>2026-03-23T15:27:15.432Z</time></trkpt><trkpt lat="44.0516133" lon="7.9539433"><ele>423.6666666666667</ele><time>2026-03-23T15:27:16.429Z</time></trkpt><trkpt lat="44.05155" lon="7.95401"><ele>423.0</ele><time>2026-03-23T15:27:17.428Z</time></trkpt><trkpt lat="44.051495" lon="7.95407"><ele>416.25</ele><time>2026-03-23T15:27:18.428Z</time></trkpt><trkpt lat="44.0514067" lon="7.95405"><ele>409.5</ele><time>2026-03-23T15:27:20.429Z</time></trkpt><trkpt lat="44.0513167" lon="7.9539183"><ele>402.75</ele><time>2026-03-23T15:27:22.429Z</time></trkpt><trkpt lat="44.0512433" lon="7.95373"><ele>396.0</ele><time>2026-03-23T15:27:23.429Z</time></trkpt><trkpt lat="44.0512" lon="7.9535533"><ele>396.0</ele><time>2026-03-23T15:27:24.429Z</time></trkpt><trkpt lat="44.0511567" lon="7.9534117"><ele>396.0</ele><time>2026-03-23T15:27:25.429Z</time></trkpt><trkpt lat="44.0511" lon="7.9532767"><ele>396.0</ele><time>2026-03-23T15:27:26.43Z</time></trkpt><trkpt lat="44.0510417" lon="7.9531483"><ele>396.0</ele><time>2026-03-23T15:27:27.428Z</time></trkpt><trkpt lat="44.0509917" lon="7.9530317"><ele>396.0</ele><time>2026-03-23T15:27:28.428Z</time></trkpt><trkpt lat="44.0509483" lon="7.952935"><ele>397.6</ele><time>2026-03-23T15:27:29.429Z</time></trkpt><trkpt lat="44.0509067" lon="7.9528667"><ele>399.20000000000005</ele><time>2026-03-23T15:27:30.428Z</time></trkpt><trkpt lat="44.0508133" lon="7.952805"><ele>400.79999999999995</ele><time>2026-03-23T15:27:32.429Z</time></trkpt><trkpt lat="44.0507233" lon="7.952865"><ele>402.4</ele><time>2026-03-23T15:27:34.428Z</time></trkpt><trkpt lat="44.0507017" lon="7.952985"><ele>404.0</ele><time>2026-03-23T15:27:35.429Z</time></trkpt><trkpt lat="44.050675" lon="7.9531317"><ele>398.2</ele><time>2026-03-23T15:27:36.429Z</time></trkpt><trkpt lat="44.05067" lon="7.9533067"><ele>392.4</ele><time>2026-03-23T15:27:37.429Z</time></trkpt><trkpt lat="44.0506667" lon="7.95346"><ele>386.6</ele><time>2026-03-23T15:27:38.43Z</time></trkpt><trkpt lat="44.0506667" lon="7.9535983"><ele>380.8</ele><time>2026-03-23T15:27:39.428Z</time></trkpt><trkpt lat="44.0506733" lon="7.9537233"><ele>375.0</ele><time>2026-03-23T15:27:40.428Z</time></trkpt><trkpt lat="44.0506883" lon="7.9538367"><ele>373.6666666666667</ele><time>2026-03-23T15:27:41.432Z</time></trkpt><trkpt lat="44.0507233" lon="7.9539383"><ele>372.3333333333333</ele><time>2026-03-23T15:27:42.432Z</time></trkpt><trkpt lat="44.0507717" lon="7.954025"><ele>371.0</ele><time>2026-03-23T15:27:43.432Z</time></trkpt><trkpt lat="44.0508133" lon="7.9541033"><ele>369.66666666666663</ele><time>2026-03-23T15:27:44.432Z</time></trkpt><trkpt lat="44.05085" lon="7.9542767"><ele>368.3333333333333</ele><time>2026-03-23T15:27:46.432Z</time></trkpt><trkpt lat="44.0508517" lon="7.9543833"><ele>367.0</ele><time>2026-03-23T15:27:47.429Z</time></trkpt><trkpt lat="44.050855" lon="7.9545133"><ele>372.5</ele><time>2026-03-23T15:27:48.429Z</time></trkpt><trkpt lat="44.0508733" lon="7.954665"><ele>378.0</ele><time>2026-03-23T15:27:49.429Z</time></trkpt><trkpt lat="44.0509033" lon="7.9548267"><ele>383.5</ele><time>2026-03-23T15:27:50.429Z</time></trkpt><trkpt lat="44.0509467" lon="7.954975"><ele>389.0</ele><time>2026-03-23T15:27:51.428Z</time></trkpt><trkpt lat="44.0509933" lon="7.9551083"><ele>389.0</ele><time>2026-03-23T15:27:52.428Z</time></trkpt><trkpt lat="44.051035" lon="7.9552183"><ele>389.0</ele><time>2026-03-23T15:27:53.429Z</time></trkpt><trkpt lat="44.0510683" lon="7.955305"><ele>389.0</ele><time>2026-03-23T15:27:54.429Z</time></trkpt><trkpt lat="44.0510867" lon="7.9553933"><ele>389.0</ele><time>2026-03-23T15:27:55.429Z</time></trkpt><trkpt lat="44.05104" lon="7.9555617"><ele>389.0</ele><time>2026-03-23T15:27:57.428Z</time></trkpt><trkpt lat="44.050975" lon="7.9556583"><ele>389.0</ele><time>2026-03-23T15:27:58.428Z</time></trkpt><trkpt lat="44.0509117" lon="7.955765"><ele>389.0</ele><time>2026-03-23T15:27:59.429Z</time></trkpt><trkpt lat="44.050825" lon="7.955885"><ele>389.0</ele><time>2026-03-23T15:28:00.428Z</time></trkpt><trkpt lat="44.05075" lon="7.9560033"><ele>389.0</ele><time>2026-03-23T15:28:01.429Z</time></trkpt><trkpt lat="44.050685" lon="7.9561317"><ele>389.0</ele><time>2026-03-23T15:28:02.43Z</time></trkpt><trkpt lat="44.050635" lon="7.9562667"><ele>382.4</ele><time>2026-03-23T15:28:03.428Z</time></trkpt><trkpt lat="44.0505967" lon="7.9564"><ele>375.79999999999995</ele><time>2026-03-23T15:28:04.429Z</time></trkpt><trkpt lat="44.050565" lon="7.95652"><ele>369.20000000000005</ele><time>2026-03-23T15:28:05.429Z</time></trkpt><trkpt lat="44.0505333" lon="7.9566133"><ele>362.6</ele><time>2026-03-23T15:28:06.432Z</time></trkpt><trkpt lat="44.0504683" lon="7.9567083"><ele>356.0</ele><time>2026-03-23T15:28:08.429Z</time></trkpt><trkpt lat="44.050385" lon="7.9566533"><ele>356.0</ele><time>2026-03-23T15:28:11.429Z</time></trkpt><trkpt lat="44.05037" lon="7.95644"><ele>356.0</ele><time>2026-03-23T15:28:13.429Z</time></trkpt><trkpt lat="44.0503667" lon="7.9562867"><ele>356.0</ele><time>2026-03-23T15:28:14.429Z</time></trkpt><trkpt lat="44.0503817" lon="7.9560917"><ele>356.0</ele><time>2026-03-23T15:28:15.429Z</time></trkpt><trkpt lat="44.0503683" lon="7.9559683"><ele>356.0</ele><time>2026-03-23T15:28:16.429Z</time></trkpt><trkpt lat="44.0503583" lon="7.9558433"><ele>356.0</ele><time>2026-03-23T15:28:17.429Z</time></trkpt><trkpt lat="44.05035" lon="7.9556917"><ele>356.0</ele><time>2026-03-23T15:28:18.429Z</time></trkpt><trkpt lat="44.0503367" lon="7.9555467"><ele>356.0</ele><time>2026-03-23T15:28:19.43Z</time></trkpt><trkpt lat="44.050285" lon="7.955465"><ele>356.0</ele><time>2026-03-23T15:28:20.43Z</time></trkpt><trkpt lat="44.0502167" lon="7.9553967"><ele>356.0</ele><time>2026-03-23T15:28:21.429Z</time></trkpt><trkpt lat="44.0501483" lon="7.9553217"><ele>356.0</ele><time>2026-03-23T15:28:22.429Z</time></trkpt><trkpt lat="44.05008" lon="7.9552417"><ele>356.0</ele><time>2026-03-23T15:28:23.429Z</time></trkpt><trkpt lat="44.0500367" lon="7.9551567"><ele>356.0</ele><time>2026-03-23T15:28:24.429Z</time></trkpt><trkpt lat="44.05001" lon="7.9550617"><ele>356.0</ele><time>2026-03-23T15:28:25.429Z</time></trkpt><trkpt lat="44.0499883" lon="7.95495"><ele>356.0</ele><time>2026-03-23T15:28:26.43Z</time></trkpt><trkpt lat="44.0499667" lon="7.95483"><ele>352.8</ele><time>2026-03-23T15:28:27.428Z</time></trkpt><trkpt lat="44.0499417" lon="7.9547033"><ele>349.6</ele><time>2026-03-23T15:28:28.429Z</time></trkpt><trkpt lat="44.04991" lon="7.9545783"><ele>346.4</ele><time>2026-03-23T15:28:29.429Z</time></trkpt><trkpt lat="44.0498683" lon="7.9544533"><ele>343.2</ele><time>2026-03-23T15:28:30.428Z</time></trkpt><trkpt lat="44.04983" lon="7.954325"><ele>340.0</ele><time>2026-03-23T15:28:31.429Z</time></trkpt><trkpt lat="44.0498033" lon="7.9541917"><ele>340.0</ele><time>2026-03-23T15:28:32.43Z</time></trkpt><trkpt lat="44.0497883" lon="7.9540583"><ele>340.0</ele><time>2026-03-23T15:28:33.429Z</time></trkpt><trkpt lat="44.049785" lon="7.9539217"><ele>340.0</ele><time>2026-03-23T15:28:34.431Z</time></trkpt><trkpt lat="44.0497867" lon="7.9538083"><ele>340.0</ele><time>2026-03-23T15:28:35.429Z</time></trkpt><trkpt lat="44.0497717" lon="7.9536483"><ele>340.0</ele><time>2026-03-23T15:28:37.428Z</time></trkpt><trkpt lat="44.0496983" lon="7.9535333"><ele>340.0</ele><time>2026-03-23T15:28:39.428Z</time></trkpt><trkpt lat="44.0496333" lon="7.95347"><ele>340.0</ele><time>2026-03-23T15:28:40.429Z</time></trkpt><trkpt lat="44.0495617" lon="7.9534017"><ele>340.0</ele><time>2026-03-23T15:28:41.432Z</time></trkpt><trkpt lat="44.0494817" lon="7.953315"><ele>340.0</ele><time>2026-03-23T15:28:42.429Z</time></trkpt><trkpt lat="44.0494033" lon="7.9532183"><ele>340.0</ele><time>2026-03-23T15:28:43.43Z</time></trkpt><trkpt lat="44.0493383" lon="7.9531083"><ele>341.16666666666663</ele><time>2026-03-23T15:28:44.43Z</time></trkpt><trkpt lat="44.0492917" lon="7.95299"><ele>342.3333333333333</ele><time>2026-03-23T15:28:45.43Z</time></trkpt><trkpt lat="44.0492617" lon="7.952885"><ele>343.5</ele><time>2026-03-23T15:28:46.43Z</time></trkpt><trkpt lat="44.0492233" lon="7.9527967"><ele>344.6666666666667</ele><time>2026-03-23T15:28:47.43Z</time></trkpt><trkpt lat="44.049155" lon="7.95278"><ele>345.83333333333337</ele><time>2026-03-23T15:28:49.431Z</time></trkpt><trkpt lat="44.0491067" lon="7.952865"><ele>347.0</ele><time>2026-03-23T15:28:51.431Z</time></trkpt><trkpt lat="44.0491017" lon="7.953"><ele>347.0</ele><time>2026-03-23T15:28:52.431Z</time></trkpt><trkpt lat="44.0491283" lon="7.953145"><ele>347.0</ele><time>2026-03-23T15:28:53.433Z</time></trkpt><trkpt lat="44.049195" lon="7.9533133"><ele>347.0</ele><time>2026-03-23T15:28:54.431Z</time></trkpt><trkpt lat="44.049275" lon="7.953495"><ele>347.0</ele><time>2026-03-23T15:28:55.432Z</time></trkpt><trkpt lat="44.0493583" lon="7.95369"><ele>345.25</ele><time>2026-03-23T15:28:56.43Z</time></trkpt><trkpt lat="44.049395" lon="7.9538417"><ele>343.5</ele><time>2026-03-23T15:28:57.43Z</time></trkpt><trkpt lat="44.0494533" lon="7.9540367"><ele>341.75</ele><time>2026-03-23T15:28:58.43Z</time></trkpt><trkpt lat="44.049475" lon="7.95421"><ele>340.0</ele><time>2026-03-23T15:28:59.43Z</time></trkpt><trkpt lat="44.0494883" lon="7.9543683"><ele>339.8333333333333</ele><time>2026-03-23T15:29:00.43Z</time></trkpt><trkpt lat="44.0494967" lon="7.954515"><ele>339.66666666666663</ele><time>2026-03-23T15:29:01.432Z</time></trkpt><trkpt lat="44.04948" lon="7.954635"><ele>339.5</ele><time>2026-03-23T15:29:02.429Z</time></trkpt><trkpt lat="44.04945" lon="7.9547317"><ele>339.3333333333333</ele><time>2026-03-23T15:29:03.429Z</time></trkpt><trkpt lat="44.0494017" lon="7.954835"><ele>339.1666666666667</ele><time>2026-03-23T15:29:04.429Z</time></trkpt><trkpt lat="44.0493667" lon="7.95494"><ele>339.0</ele><time>2026-03-23T15:29:05.431Z</time></trkpt><trkpt lat="44.049355" lon="7.9550567"><ele>337.79999999999995</ele><time>2026-03-23T15:29:06.429Z</time></trkpt><trkpt lat="44.0493533" lon="7.9551933"><ele>336.59999999999997</ele><time>2026-03-23T15:29:07.43Z</time></trkpt><trkpt lat="44.0493567" lon="7.9553567"><ele>335.4</ele><time>2026-03-23T15:29:08.43Z</time></trkpt><trkpt lat="44.0493533" lon="7.95552"><ele>334.2</ele><time>2026-03-23T15:29:09.43Z</time></trkpt><trkpt lat="44.0493633" lon="7.9556733"><ele>333.0</ele><time>2026-03-23T15:29:10.429Z</time></trkpt><trkpt lat="44.04939" lon="7.95581"><ele>331.8333333333333</ele><time>2026-03-23T15:29:11.432Z</time></trkpt><trkpt lat="44.0494267" lon="7.9559283"><ele>330.6666666666667</ele><time>2026-03-23T15:29:12.432Z</time></trkpt><trkpt lat="44.049475" lon="7.9560467"><ele>329.5</ele><time>2026-03-23T15:29:13.432Z</time></trkpt><trkpt lat="44.0495167" lon="7.9561567"><ele>328.33333333333337</ele><time>2026-03-23T15:29:14.429Z</time></trkpt><trkpt lat="44.0495367" lon="7.9562633"><ele>327.1666666666667</ele><time>2026-03-23T15:29:15.432Z</time></trkpt><trkpt lat="44.0495367" lon="7.9563617"><ele>326.0</ele><time>2026-03-23T15:29:16.429Z</time></trkpt><trkpt lat="44.0495183" lon="7.956465"><ele>326.0</ele><time>2026-03-23T15:29:17.43Z</time></trkpt><trkpt lat="44.049495" lon="7.9565733"><ele>326.0</ele><time>2026-03-23T15:29:18.43Z</time></trkpt><trkpt lat="44.04946" lon="7.95669"><ele>326.0</ele><time>2026-03-23T15:29:19.43Z</time></trkpt><trkpt lat="44.049405" lon="7.9568217"><ele>326.0</ele><time>2026-03-23T15:29:20.431Z</time></trkpt><trkpt lat="44.0493433" lon="7.95695"><ele>326.0</ele><time>2026-03-23T15:29:21.43Z</time></trkpt><trkpt lat="44.049275" lon="7.9570833"><ele>325.8</ele><time>2026-03-23T15:29:22.43Z</time></trkpt><trkpt lat="44.04923" lon="7.95721"><ele>325.6</ele><time>2026-03-23T15:29:23.43Z</time></trkpt><trkpt lat="44.04921" lon="7.9573333"><ele>325.4</ele><time>2026-03-23T15:29:24.43Z</time></trkpt><trkpt lat="44.049205" lon="7.9574583"><ele>325.2</ele><time>2026-03-23T15:29:25.43Z</time></trkpt><trkpt lat="44.0492067" lon="7.9575917"><ele>325.0</ele><time>2026-03-23T15:29:26.431Z</time></trkpt><trkpt lat="44.049215" lon="7.9577333"><ele>323.4</ele><time>2026-03-23T15:29:27.43Z</time></trkpt><trkpt lat="44.0492233" lon="7.9578767"><ele>321.8</ele><time>2026-03-23T15:29:28.43Z</time></trkpt><trkpt lat="44.0492367" lon="7.95802"><ele>320.2</ele><time>2026-03-23T15:29:29.431Z</time></trkpt><trkpt lat="44.049245" lon="7.95815"><ele>318.6</ele><time>2026-03-23T15:29:30.43Z</time></trkpt><trkpt lat="44.049235" lon="7.9582633"><ele>317.0</ele><time>2026-03-23T15:29:31.432Z</time></trkpt><trkpt lat="44.0492167" lon="7.9583533"><ele>315.5</ele><time>2026-03-23T15:29:32.429Z</time></trkpt><trkpt lat="44.0491683" lon="7.9584233"><ele>314.0</ele><time>2026-03-23T15:29:33.43Z</time></trkpt><trkpt lat="44.0490467" lon="7.9584567"><ele>312.5</ele><time>2026-03-23T15:29:35.436Z</time></trkpt><trkpt lat="44.0489783" lon="7.958415"><ele>311.0</ele><time>2026-03-23T15:29:36.43Z</time></trkpt><trkpt lat="44.0489283" lon="7.9583317"><ele>309.5</ele><time>2026-03-23T15:29:37.43Z</time></trkpt><trkpt lat="44.04889" lon="7.9582333"><ele>308.0</ele><time>2026-03-23T15:29:38.43Z</time></trkpt><trkpt lat="44.0488633" lon="7.9581083"><ele>305.5</ele><time>2026-03-23T15:29:39.43Z</time></trkpt><trkpt lat="44.0488367" lon="7.957965"><ele>303.0</ele><time>2026-03-23T15:29:40.43Z</time></trkpt><trkpt lat="44.0488083" lon="7.9578067"><ele>300.5</ele><time>2026-03-23T15:29:41.431Z</time></trkpt><trkpt lat="44.0487833" lon="7.9576433"><ele>298.0</ele><time>2026-03-23T15:29:42.43Z</time></trkpt><trkpt lat="44.0487633" lon="7.9574767"><ele>298.0</ele><time>2026-03-23T15:29:43.43Z</time></trkpt><trkpt lat="44.048745" lon="7.9573117"><ele>298.0</ele><time>2026-03-23T15:29:44.431Z</time></trkpt><trkpt lat="44.0487317" lon="7.9571483"><ele>298.0</ele><time>2026-03-23T15:29:45.43Z</time></trkpt><trkpt lat="44.04873" lon="7.9570017"><ele>298.0</ele><time>2026-03-23T15:29:46.43Z</time></trkpt><trkpt lat="44.0487517" lon="7.9568867"><ele>298.0</ele><time>2026-03-23T15:29:47.431Z</time></trkpt><trkpt lat="44.0487817" lon="7.9568"><ele>298.0</ele><time>2026-03-23T15:29:48.43Z</time></trkpt><trkpt lat="44.0488267" lon="7.9567267"><ele>298.0</ele><time>2026-03-23T15:29:49.43Z</time></trkpt><trkpt lat="44.0488817" lon="7.9565983"><ele>298.0</ele><time>2026-03-23T15:29:51.43Z</time></trkpt><trkpt lat="44.048835" lon="7.9565117"><ele>298.0</ele><time>2026-03-23T15:29:53.43Z</time></trkpt><trkpt lat="44.048725" lon="7.9564183"><ele>298.0</ele><time>2026-03-23T15:29:55.43Z</time></trkpt><trkpt lat="44.0486317" lon="7.95635"><ele>298.75</ele><time>2026-03-23T15:29:56.43Z</time></trkpt><trkpt lat="44.048515" lon="7.95625"><ele>299.5</ele><time>2026-03-23T15:29:57.432Z</time></trkpt><trkpt lat="44.0484017" lon="7.9561333"><ele>300.25</ele><time>2026-03-23T15:29:58.431Z</time></trkpt><trkpt lat="44.0482967" lon="7.9560083"><ele>301.0</ele><time>2026-03-23T15:29:59.429Z</time></trkpt><trkpt lat="44.0481967" lon="7.955875"><ele>296.0</ele><time>2026-03-23T15:30:00.429Z</time></trkpt><trkpt lat="44.048095" lon="7.95574"><ele>291.0</ele><time>2026-03-23T15:30:01.429Z</time></trkpt><trkpt lat="44.0480033" lon="7.95562"><ele>286.0</ele><time>2026-03-23T15:30:02.43Z</time></trkpt><trkpt lat="44.047935" lon="7.9555"><ele>281.0</ele><time>2026-03-23T15:30:03.429Z</time></trkpt><trkpt lat="44.0478833" lon="7.955375"><ele>281.0</ele><time>2026-03-23T15:30:04.43Z</time></trkpt><trkpt lat="44.0478417" lon="7.9552633"><ele>281.0</ele><time>2026-03-23T15:30:05.431Z</time></trkpt><trkpt lat="44.0478" lon="7.95518"><ele>281.0</ele><time>2026-03-23T15:30:06.429Z</time></trkpt><trkpt lat="44.0477333" lon="7.9551683"><ele>281.0</ele><time>2026-03-23T15:30:08.43Z</time></trkpt><trkpt lat="44.0477067" lon="7.9553433"><ele>281.0</ele><time>2026-03-23T15:30:10.429Z</time></trkpt><trkpt lat="44.0477167" lon="7.95549"><ele>281.0</ele><time>2026-03-23T15:30:11.432Z</time></trkpt><trkpt lat="44.0477317" lon="7.955625"><ele>281.0</ele><time>2026-03-23T15:30:12.432Z</time></trkpt><trkpt lat="44.0477633" lon="7.9557483"><ele>281.0</ele><time>2026-03-23T15:30:13.432Z</time></trkpt><trkpt lat="44.047815" lon="7.9558717"><ele>281.0</ele><time>2026-03-23T15:30:14.432Z</time></trkpt><trkpt lat="44.0478583" lon="7.9559833"><ele>281.0</ele><time>2026-03-23T15:30:15.432Z</time></trkpt><trkpt lat="44.0478833" lon="7.9560967"><ele>279.6</ele><time>2026-03-23T15:30:16.431Z</time></trkpt><trkpt lat="44.0478933" lon="7.9562233"><ele>278.20000000000005</ele><time>2026-03-23T15:30:17.428Z</time></trkpt><trkpt lat="44.0479183" lon="7.956355"><ele>276.79999999999995</ele><time>2026-03-23T15:30:18.428Z</time></trkpt><trkpt lat="44.0479633" lon="7.9564883"><ele>275.4</ele><time>2026-03-23T15:30:19.428Z</time></trkpt><trkpt lat="44.04802" lon="7.9566183"><ele>274.0</ele><time>2026-03-23T15:30:20.429Z</time></trkpt><trkpt lat="44.0480667" lon="7.95674"><ele>273.0</ele><time>2026-03-23T15:30:21.427Z</time></trkpt><trkpt lat="44.0481033" lon="7.956845"><ele>272.0</ele><time>2026-03-23T15:30:22.428Z</time></trkpt><trkpt lat="44.0481233" lon="7.9569433"><ele>271.0</ele><time>2026-03-23T15:30:23.427Z</time></trkpt><trkpt lat="44.0481217" lon="7.957045"><ele>270.0</ele><time>2026-03-23T15:30:24.428Z</time></trkpt><trkpt lat="44.04811" lon="7.9571667"><ele>269.0</ele><time>2026-03-23T15:30:25.428Z</time></trkpt><trkpt lat="44.0481067" lon="7.9573133"><ele>268.0</ele><time>2026-03-23T15:30:26.432Z</time></trkpt><trkpt lat="44.0481117" lon="7.9574733"><ele>266.5</ele><time>2026-03-23T15:30:27.431Z</time></trkpt><trkpt lat="44.0481233" lon="7.9576417"><ele>265.0</ele><time>2026-03-23T15:30:28.428Z</time></trkpt><trkpt lat="44.0481333" lon="7.957805"><ele>263.5</ele><time>2026-03-23T15:30:29.428Z</time></trkpt><trkpt lat="44.04815" lon="7.9579633"><ele>262.0</ele><time>2026-03-23T15:30:30.428Z</time></trkpt><trkpt lat="44.0481633" lon="7.95812"><ele>262.0</ele><time>2026-03-23T15:30:31.431Z</time></trkpt><trkpt lat="44.0481717" lon="7.958275"><ele>262.0</ele><time>2026-03-23T15:30:32.431Z</time></trkpt><trkpt lat="44.04819" lon="7.958415"><ele>262.0</ele><time>2026-03-23T15:30:33.428Z</time></trkpt><trkpt lat="44.0482217" lon="7.9585517"><ele>262.0</ele><time>2026-03-23T15:30:34.428Z</time></trkpt><trkpt lat="44.0482617" lon="7.9586917"><ele>262.0</ele><time>2026-03-23T15:30:35.428Z</time></trkpt><trkpt lat="44.0483067" lon="7.9588333"><ele>264.0</ele><time>2026-03-23T15:30:36.429Z</time></trkpt><trkpt lat="44.0483433" lon="7.958975"><ele>266.0</ele><time>2026-03-23T15:30:37.428Z</time></trkpt><trkpt lat="44.0483717" lon="7.959115"><ele>268.0</ele><time>2026-03-23T15:30:38.429Z</time></trkpt><trkpt lat="44.048395" lon="7.9592483"><ele>270.0</ele><time>2026-03-23T15:30:39.428Z</time></trkpt><trkpt lat="44.0484217" lon="7.9593783"><ele>272.0</ele><time>2026-03-23T15:30:40.428Z</time></trkpt><trkpt lat="44.04846" lon="7.9595117"><ele>272.0</ele><time>2026-03-23T15:30:41.431Z</time></trkpt><trkpt lat="44.0485017" lon="7.959645"><ele>272.0</ele><time>2026-03-23T15:30:42.431Z</time></trkpt><trkpt lat="44.0485317" lon="7.95977"><ele>272.0</ele><time>2026-03-23T15:30:43.428Z</time></trkpt><trkpt lat="44.048545" lon="7.95989"><ele>272.0</ele><time>2026-03-23T15:30:44.43Z</time></trkpt><trkpt lat="44.0485533" lon="7.9599983"><ele>272.0</ele><time>2026-03-23T15:30:45.428Z</time></trkpt><trkpt lat="44.0485567" lon="7.960145"><ele>270.5</ele><time>2026-03-23T15:30:47.428Z</time></trkpt><trkpt lat="44.0485" lon="7.9602333"><ele>269.0</ele><time>2026-03-23T15:30:51.429Z</time></trkpt><trkpt lat="44.0484683" lon="7.9603217"><ele>267.5</ele><time>2026-03-23T15:30:53.431Z</time></trkpt><trkpt lat="44.048495" lon="7.9604067"><ele>266.0</ele><time>2026-03-23T15:30:54.428Z</time></trkpt><trkpt lat="44.04854" lon="7.9605267"><ele>264.5</ele><time>2026-03-23T15:30:55.432Z</time></trkpt><trkpt lat="44.048595" lon="7.960655"><ele>263.0</ele><time>2026-03-23T15:30:56.43Z</time></trkpt><trkpt lat="44.04867" lon="7.9607833"><ele>258.75</ele><time>2026-03-23T15:30:57.431Z</time></trkpt><trkpt lat="44.048765" lon="7.9609033"><ele>254.5</ele><time>2026-03-23T15:30:58.444Z</time></trkpt><trkpt lat="44.048875" lon="7.9610183"><ele>250.25</ele><time>2026-03-23T15:30:59.43Z</time></trkpt><trkpt lat="44.0489683" lon="7.9611333"><ele>246.0</ele><time>2026-03-23T15:31:00.429Z</time></trkpt><trkpt lat="44.0490433" lon="7.96125"><ele>246.0</ele><time>2026-03-23T15:31:01.43Z</time></trkpt><trkpt lat="44.0490933" lon="7.961385"><ele>246.0</ele><time>2026-03-23T15:31:02.43Z</time></trkpt><trkpt lat="44.0491167" lon="7.961545"><ele>246.0</ele><time>2026-03-23T15:31:03.429Z</time></trkpt><trkpt lat="44.0491383" lon="7.9617283"><ele>246.0</ele><time>2026-03-23T15:31:04.429Z</time></trkpt><trkpt lat="44.0491583" lon="7.9619217"><ele>246.25</ele><time>2026-03-23T15:31:05.43Z</time></trkpt><trkpt lat="44.049165" lon="7.9621167"><ele>246.5</ele><time>2026-03-23T15:31:06.432Z</time></trkpt><trkpt lat="44.0491667" lon="7.9623067"><ele>246.75</ele><time>2026-03-23T15:31:07.428Z</time></trkpt><trkpt lat="44.0491567" lon="7.962485"><ele>247.0</ele><time>2026-03-23T15:31:08.429Z</time></trkpt><trkpt lat="44.0491467" lon="7.9626417"><ele>247.0</ele><time>2026-03-23T15:31:09.431Z</time></trkpt><trkpt lat="44.0491467" lon="7.962785"><ele>247.0</ele><time>2026-03-23T15:31:10.429Z</time></trkpt><trkpt lat="44.04917" lon="7.9629383"><ele>247.0</ele><time>2026-03-23T15:31:11.431Z</time></trkpt><trkpt lat="44.0492067" lon="7.9630967"><ele>247.0</ele><time>2026-03-23T15:31:12.431Z</time></trkpt><trkpt lat="44.0492567" lon="7.9632533"><ele>243.0</ele><time>2026-03-23T15:31:13.431Z</time></trkpt><trkpt lat="44.0493183" lon="7.9634067"><ele>239.0</ele><time>2026-03-23T15:31:14.432Z</time></trkpt><trkpt lat="44.049385" lon="7.963565"><ele>235.0</ele><time>2026-03-23T15:31:15.432Z</time></trkpt><trkpt lat="44.0494533" lon="7.9637233"><ele>231.0</ele><time>2026-03-23T15:31:16.432Z</time></trkpt><trkpt lat="44.0495267" lon="7.963885"><ele>231.0</ele><time>2026-03-23T15:31:17.428Z</time></trkpt><trkpt lat="44.049605" lon="7.9640367"><ele>231.0</ele><time>2026-03-23T15:31:18.429Z</time></trkpt><trkpt lat="44.049685" lon="7.96419"><ele>231.0</ele><time>2026-03-23T15:31:19.429Z</time></trkpt><trkpt lat="44.049765" lon="7.9643417"><ele>231.0</ele><time>2026-03-23T15:31:20.432Z</time></trkpt><trkpt lat="44.049855" lon="7.9644767"><ele>233.0</ele><time>2026-03-23T15:31:21.427Z</time></trkpt><trkpt lat="44.049935" lon="7.964595"><ele>235.00000000000003</ele><time>2026-03-23T15:31:22.429Z</time></trkpt><trkpt lat="44.0499967" lon="7.9647083"><ele>237.00000000000003</ele><time>2026-03-23T15:31:23.429Z</time></trkpt><trkpt lat="44.05003" lon="7.9648367"><ele>239.0</ele><time>2026-03-23T15:31:24.428Z</time></trkpt><trkpt lat="44.05005" lon="7.9649833"><ele>241.0</ele><time>2026-03-23T15:31:25.428Z</time></trkpt><trkpt lat="44.0500617" lon="7.96515"><ele>241.0</ele><time>2026-03-23T15:31:26.429Z</time></trkpt><trkpt lat="44.0500583" lon="7.9653267"><ele>241.0</ele><time>2026-03-23T15:31:27.428Z</time></trkpt><trkpt lat="44.05004" lon="7.9655"><ele>241.0</ele><time>2026-03-23T15:31:28.428Z</time></trkpt><trkpt lat="44.0499967" lon="7.9656617"><ele>241.0</ele><time>2026-03-23T15:31:29.431Z</time></trkpt><trkpt lat="44.0499433" lon="7.9658067"><ele>238.0</ele><time>2026-03-23T15:31:30.428Z</time></trkpt><trkpt lat="44.0498983" lon="7.9659467"><ele>235.00000000000003</ele><time>2026-03-23T15:31:31.428Z</time></trkpt><trkpt lat="44.0498867" lon="7.9660733"><ele>232.00000000000003</ele><time>2026-03-23T15:31:32.432Z</time></trkpt><trkpt lat="44.0499" lon="7.9661917"><ele>229.0</ele><time>2026-03-23T15:31:33.428Z</time></trkpt><trkpt lat="44.0499417" lon="7.9663233"><ele>226.0</ele><time>2026-03-23T15:31:34.428Z</time></trkpt><trkpt lat="44.04999" lon="7.9664783"><ele>226.0</ele><time>2026-03-23T15:31:35.429Z</time></trkpt><trkpt lat="44.050025" lon="7.9666417"><ele>226.00000000000003</ele><time>2026-03-23T15:31:36.432Z</time></trkpt><trkpt lat="44.05006" lon="7.9668017"><ele>226.00000000000003</ele><time>2026-03-23T15:31:37.429Z</time></trkpt><trkpt lat="44.0501033" lon="7.9669333"><ele>226.0</ele><time>2026-03-23T15:31:38.429Z</time></trkpt><trkpt lat="44.0501567" lon="7.9670117"><ele>226.0</ele><time>2026-03-23T15:31:39.431Z</time></trkpt><trkpt lat="44.050225" lon="7.9670633"><ele>221.8</ele><time>2026-03-23T15:31:40.429Z</time></trkpt><trkpt lat="44.0503217" lon="7.9671117"><ele>217.60000000000002</ele><time>2026-03-23T15:31:41.431Z</time></trkpt><trkpt lat="44.0504217" lon="7.9671817"><ele>213.4</ele><time>2026-03-23T15:31:42.431Z</time></trkpt><trkpt lat="44.0505183" lon="7.9672917"><ele>209.2</ele><time>2026-03-23T15:31:43.432Z</time></trkpt><trkpt lat="44.0505917" lon="7.9673917"><ele>205.0</ele><time>2026-03-23T15:31:44.429Z</time></trkpt><trkpt lat="44.05064" lon="7.96748"><ele>205.0</ele><time>2026-03-23T15:31:45.428Z</time></trkpt><trkpt lat="44.0506683" lon="7.9676017"><ele>205.0</ele><time>2026-03-23T15:31:47.428Z</time></trkpt><trkpt lat="44.0505983" lon="7.9675917"><ele>205.0</ele><time>2026-03-23T15:31:50.429Z</time></trkpt><trkpt lat="44.05051" lon="7.9674767"><ele>205.0</ele><time>2026-03-23T15:31:51.428Z</time></trkpt><trkpt lat="44.0504033" lon="7.9673633"><ele>205.0</ele><time>2026-03-23T15:31:52.428Z</time></trkpt><trkpt lat="44.05018" lon="7.9672017"><ele>205.0</ele><time>2026-03-23T15:31:53.429Z</time></trkpt><trkpt lat="44.0501033" lon="7.967145"><ele>205.0</ele><time>2026-03-23T15:31:54.429Z</time></trkpt><trkpt lat="44.0500017" lon="7.9670683"><ele>205.0</ele><time>2026-03-23T15:31:55.429Z</time></trkpt><trkpt lat="44.0499067" lon="7.9669667"><ele>205.0</ele><time>2026-03-23T15:31:56.429Z</time></trkpt><trkpt lat="44.0498167" lon="7.9668567"><ele>205.0</ele><time>2026-03-23T15:31:57.428Z</time></trkpt><trkpt lat="44.0497183" lon="7.9667467"><ele>201.5</ele><time>2026-03-23T15:31:58.428Z</time></trkpt><trkpt lat="44.0496167" lon="7.9666433"><ele>198.0</ele><time>2026-03-23T15:31:59.429Z</time></trkpt><trkpt lat="44.0495133" lon="7.9665383"><ele>194.5</ele><time>2026-03-23T15:32:00.428Z</time></trkpt><trkpt lat="44.049415" lon="7.966435"><ele>191.0</ele><time>2026-03-23T15:32:01.429Z</time></trkpt><trkpt lat="44.0493483" lon="7.9663467"><ele>191.0</ele><time>2026-03-23T15:32:02.428Z</time></trkpt><trkpt lat="44.0493" lon="7.966255"><ele>191.0</ele><time>2026-03-23T15:32:03.428Z</time></trkpt><trkpt lat="44.0492717" lon="7.9661533"><ele>191.0</ele><time>2026-03-23T15:32:04.428Z</time></trkpt><trkpt lat="44.0492367" lon="7.9660417"><ele>191.0</ele><time>2026-03-23T15:32:05.428Z</time></trkpt><trkpt lat="44.0491783" lon="7.9659433"><ele>191.0</ele><time>2026-03-23T15:32:06.428Z</time></trkpt><trkpt lat="44.0490983" lon="7.9658483"><ele>191.0</ele><time>2026-03-23T15:32:07.428Z</time></trkpt><trkpt lat="44.04901" lon="7.9657567"><ele>188.60000000000002</ele><time>2026-03-23T15:32:08.43Z</time></trkpt><trkpt lat="44.0489317" lon="7.9656583"><ele>186.2</ele><time>2026-03-23T15:32:09.428Z</time></trkpt><trkpt lat="44.0488733" lon="7.965545"><ele>183.8</ele><time>2026-03-23T15:32:10.429Z</time></trkpt><trkpt lat="44.0488383" lon="7.9654233"><ele>181.39999999999998</ele><time>2026-03-23T15:32:11.429Z</time></trkpt><trkpt lat="44.04883" lon="7.9653033"><ele>179.0</ele><time>2026-03-23T15:32:12.429Z</time></trkpt><trkpt lat="44.0488417" lon="7.9651783"><ele>179.0</ele><time>2026-03-23T15:32:13.429Z</time></trkpt><trkpt lat="44.0488433" lon="7.9650533"><ele>179.0</ele><time>2026-03-23T15:32:14.43Z</time></trkpt><trkpt lat="44.0488283" lon="7.9649417"><ele>179.0</ele><time>2026-03-23T15:32:15.428Z</time></trkpt><trkpt lat="44.0487933" lon="7.9648333"><ele>179.0</ele><time>2026-03-23T15:32:16.428Z</time></trkpt><trkpt lat="44.0487283" lon="7.9647317"><ele>179.0</ele><time>2026-03-23T15:32:17.428Z</time></trkpt><trkpt lat="44.048655" lon="7.964615"><ele>180.5</ele><time>2026-03-23T15:32:18.428Z</time></trkpt><trkpt lat="44.04858" lon="7.96448"><ele>182.0</ele><time>2026-03-23T15:32:19.429Z</time></trkpt><trkpt lat="44.0485017" lon="7.9643283"><ele>183.5</ele><time>2026-03-23T15:32:20.429Z</time></trkpt><trkpt lat="44.0484217" lon="7.964175"><ele>185.0</ele><time>2026-03-23T15:32:21.428Z</time></trkpt><trkpt lat="44.04834" lon="7.9640217"><ele>182.0</ele><time>2026-03-23T15:32:22.429Z</time></trkpt><trkpt lat="44.048255" lon="7.9638783"><ele>179.0</ele><time>2026-03-23T15:32:23.429Z</time></trkpt><trkpt lat="44.0481617" lon="7.9637533"><ele>176.0</ele><time>2026-03-23T15:32:24.428Z</time></trkpt><trkpt lat="44.048055" lon="7.96365"><ele>173.0</ele><time>2026-03-23T15:32:25.429Z</time></trkpt><trkpt lat="44.0479417" lon="7.9635567"><ele>173.0</ele><time>2026-03-23T15:32:26.428Z</time></trkpt><trkpt lat="44.0478267" lon="7.9634633"><ele>173.0</ele><time>2026-03-23T15:32:27.428Z</time></trkpt><trkpt lat="44.0477183" lon="7.96337"><ele>173.0</ele><time>2026-03-23T15:32:28.428Z</time></trkpt><trkpt lat="44.0476217" lon="7.9632733"><ele>173.0</ele><time>2026-03-23T15:32:29.429Z</time></trkpt><trkpt lat="44.0475333" lon="7.9631683"><ele>172.60000000000002</ele><time>2026-03-23T15:32:30.428Z</time></trkpt><trkpt lat="44.0474483" lon="7.96306"><ele>172.20000000000002</ele><time>2026-03-23T15:32:31.429Z</time></trkpt><trkpt lat="44.0473683" lon="7.96295"><ele>171.8</ele><time>2026-03-23T15:32:32.429Z</time></trkpt><trkpt lat="44.0472933" lon="7.9628433"><ele>171.4</ele><time>2026-03-23T15:32:33.428Z</time></trkpt><trkpt lat="44.04723" lon="7.9627533"><ele>171.0</ele><time>2026-03-23T15:32:34.428Z</time></trkpt><trkpt lat="44.0471783" lon="7.962685"><ele>171.0</ele><time>2026-03-23T15:32:35.429Z</time></trkpt><trkpt lat="44.0471267" lon="7.962605"><ele>171.0</ele><time>2026-03-23T15:32:37.429Z</time></trkpt></trkseg></trk></gpx>